createdAt,value
2017-09-01T00:00:12.825Z,14.16
2017-09-01T00:02:39.241Z,14.14
2017-09-01T00:05:05.628Z,14.04
2017-09-01T00:07:32.221Z,14.06
2017-09-01T00:09:58.901Z,14.03
2017-09-01T00:12:25.539Z,13.88
2017-09-01T00:14:52.173Z,14.06
2017-09-01T00:17:18.790Z,13.89
2017-09-01T00:19:45.251Z,13.83
2017-09-01T00:22:11.847Z,13.80
2017-09-01T00:24:38.525Z,13.64
2017-09-01T00:27:05.008Z,13.52
2017-09-01T00:29:31.596Z,13.48
2017-09-01T00:31:58.237Z,13.37
2017-09-01T00:34:24.663Z,13.24
2017-09-01T00:36:51.304Z,13.50
2017-09-01T00:39:17.796Z,13.35
2017-09-01T00:41:44.237Z,13.35
2017-09-01T00:44:11.023Z,13.52
2017-09-01T00:46:37.447Z,13.46
2017-09-01T00:49:04.059Z,13.32
2017-09-01T00:51:30.579Z,13.42
2017-09-01T00:53:57.020Z,13.30
2017-09-01T00:58:56.167Z,13.67
2017-09-01T01:01:22.500Z,13.68
2017-09-01T01:03:48.980Z,13.63
2017-09-01T01:06:15.526Z,13.44
2017-09-01T01:08:41.971Z,13.29
2017-09-01T01:11:08.333Z,13.43
2017-09-01T01:13:34.970Z,13.29
2017-09-01T01:16:01.595Z,13.33
2017-09-01T01:18:27.907Z,13.25
2017-09-01T01:20:54.478Z,13.15
2017-09-01T01:23:20.782Z,13.16
2017-09-01T01:25:47.082Z,13.14
2017-09-01T01:28:13.441Z,13.15
2017-09-01T01:30:39.844Z,13.14
2017-09-01T01:33:06.286Z,13.12
2017-09-01T01:35:32.863Z,13.12
2017-09-01T01:37:59.370Z,12.99
2017-09-01T01:40:25.793Z,12.86
2017-09-01T01:42:52.144Z,12.76
2017-09-01T01:45:18.439Z,12.62
2017-09-01T01:47:44.742Z,12.67
2017-09-01T01:50:11.101Z,12.62
2017-09-01T01:52:37.393Z,12.64
2017-09-01T01:55:03.673Z,12.92
2017-09-01T01:57:30.035Z,12.95
2017-09-01T01:59:56.593Z,12.93
2017-09-01T02:02:23.193Z,12.74
2017-09-01T02:04:49.663Z,12.65
2017-09-01T02:07:16.270Z,12.56
2017-09-01T02:09:42.734Z,12.82
2017-09-01T02:12:09.167Z,12.82
2017-09-01T02:14:35.605Z,13.00
2017-09-01T02:17:02.220Z,12.94
2017-09-01T02:19:28.672Z,12.82
2017-09-01T02:21:55.271Z,12.76
2017-09-01T02:24:21.919Z,12.91
2017-09-01T02:26:48.438Z,12.71
2017-09-01T02:29:14.880Z,12.56
2017-09-01T02:31:41.323Z,12.64
2017-09-01T02:34:07.896Z,12.69
2017-09-01T02:36:34.382Z,12.58
2017-09-01T02:39:00.823Z,12.46
2017-09-01T02:41:27.601Z,12.67
2017-09-01T02:43:54.107Z,12.67
2017-09-01T02:46:20.620Z,12.61
2017-09-01T02:48:47.264Z,12.47
2017-09-01T02:51:13.947Z,12.42
2017-09-01T02:53:40.382Z,12.37
2017-09-01T02:56:07.017Z,12.38
2017-09-01T02:58:33.632Z,12.45
2017-09-01T03:01:00.087Z,12.50
2017-09-01T03:03:26.665Z,12.28
2017-09-01T03:05:53.162Z,12.55
2017-09-01T03:08:19.651Z,12.52
2017-09-01T03:10:46.025Z,12.45
2017-09-01T03:13:12.317Z,12.30
2017-09-01T03:15:38.627Z,12.25
2017-09-01T03:18:04.992Z,12.36
2017-09-01T03:20:31.323Z,12.31
2017-09-01T03:22:57.631Z,12.20
2017-09-01T03:25:23.995Z,12.17
2017-09-01T03:27:50.651Z,12.13
2017-09-01T03:30:17.086Z,12.11
2017-09-01T03:32:43.723Z,12.20
2017-09-01T03:35:10.032Z,12.32
2017-09-01T03:37:36.349Z,12.30
2017-09-01T03:40:02.728Z,12.33
2017-09-01T03:42:29.040Z,12.34
2017-09-01T03:44:55.337Z,12.22
2017-09-01T03:47:21.724Z,12.18
2017-09-01T03:49:48.044Z,12.28
2017-09-01T03:52:14.360Z,12.46
2017-09-01T03:54:40.709Z,12.38
2017-09-01T03:57:07.017Z,12.63
2017-09-01T03:59:33.317Z,12.91
2017-09-01T04:01:59.738Z,13.54
2017-09-01T04:04:26.064Z,14.31
2017-09-01T04:06:52.370Z,15.02
2017-09-01T04:09:18.947Z,15.69
2017-09-01T04:11:45.632Z,16.01
2017-09-01T04:14:12.107Z,16.54
2017-09-01T04:16:38.672Z,17.12
2017-09-01T04:19:05.341Z,17.65
2017-09-01T04:21:31.957Z,18.24
2017-09-01T04:23:58.573Z,18.85
2017-09-01T04:26:25.255Z,19.17
2017-09-01T04:28:51.901Z,19.59
2017-09-01T04:31:18.254Z,19.85
2017-09-01T04:33:44.941Z,20.81
2017-09-01T04:36:11.605Z,21.32
2017-09-01T04:38:38.239Z,21.81
2017-09-01T04:41:04.572Z,22.35
2017-09-01T04:43:31.056Z,22.96
2017-09-01T04:45:57.602Z,23.43
2017-09-01T04:48:24.118Z,24.17
2017-09-01T04:50:50.510Z,24.36
2017-09-01T04:53:17.149Z,24.50
2017-09-01T04:55:43.768Z,25.36
2017-09-01T04:58:10.224Z,25.82
2017-09-01T05:00:36.668Z,26.19
2017-09-01T05:03:03.270Z,26.03
2017-09-01T05:05:29.931Z,26.30
2017-09-01T05:07:56.567Z,26.54
2017-09-01T05:10:23.194Z,27.08
2017-09-01T05:12:49.627Z,28.05
2017-09-01T05:15:16.230Z,28.36
2017-09-01T05:17:42.706Z,27.78
2017-09-01T05:20:09.322Z,27.96
2017-09-01T05:22:35.933Z,28.21
2017-09-01T05:25:02.624Z,27.96
2017-09-01T05:27:29.264Z,28.16
2017-09-01T05:29:55.697Z,28.80
2017-09-01T05:32:22.329Z,28.95
2017-09-01T05:34:48.942Z,29.05
2017-09-01T05:37:15.560Z,29.29
2017-09-01T05:39:42.104Z,29.78
2017-09-01T05:42:08.592Z,29.76
2017-09-01T05:44:35.189Z,30.61
2017-09-01T05:47:01.876Z,30.56
2017-09-01T05:49:28.187Z,30.38
2017-09-01T05:51:54.929Z,30.76
2017-09-01T05:54:21.369Z,30.15
2017-09-01T05:56:47.973Z,30.62
2017-09-01T05:59:14.437Z,31.03
2017-09-01T06:01:40.741Z,31.69
2017-09-01T06:04:07.063Z,31.64
2017-09-01T06:06:33.434Z,31.34
2017-09-01T06:08:59.754Z,31.59
2017-09-01T06:11:26.076Z,31.82
2017-09-01T06:13:52.461Z,31.76
2017-09-01T06:16:18.774Z,32.07
2017-09-01T06:18:45.085Z,32.44
2017-09-01T06:21:11.504Z,32.22
2017-09-01T06:23:37.799Z,32.64
2017-09-01T06:26:04.118Z,32.28
2017-09-01T06:28:30.501Z,32.58
2017-09-01T06:30:56.990Z,33.51
2017-09-01T06:33:23.657Z,33.41
2017-09-01T06:35:50.202Z,33.61
2017-09-01T06:38:16.715Z,34.28
2017-09-01T06:40:43.285Z,35.02
2017-09-01T06:43:09.974Z,35.12
2017-09-01T06:45:36.461Z,35.80
2017-09-01T06:48:03.080Z,35.61
2017-09-01T06:50:29.702Z,35.80
2017-09-01T06:52:56.221Z,35.49
2017-09-01T06:55:22.983Z,35.63
2017-09-01T06:57:49.605Z,35.58
2017-09-01T07:00:16.148Z,35.27
2017-09-01T07:02:42.926Z,35.89
2017-09-01T07:05:09.769Z,36.33
2017-09-01T07:07:36.202Z,36.06
2017-09-01T07:10:02.838Z,35.97
2017-09-01T07:12:29.658Z,35.34
2017-09-01T07:14:56.274Z,34.47
2017-09-01T07:17:22.964Z,34.50
2017-09-01T07:19:49.688Z,35.58
2017-09-01T07:22:16.442Z,36.03
2017-09-01T07:24:42.947Z,36.29
2017-09-01T07:27:09.515Z,36.63
2017-09-01T07:29:36.152Z,36.62
2017-09-01T07:32:02.747Z,36.82
2017-09-01T07:34:29.225Z,37.85
2017-09-01T07:36:55.862Z,37.90
2017-09-01T07:39:22.499Z,38.20
2017-09-01T07:41:49.317Z,38.07
2017-09-01T07:44:15.837Z,38.23
2017-09-01T07:46:42.215Z,38.24
2017-09-01T07:49:08.656Z,38.39
2017-09-01T07:51:35.034Z,38.62
2017-09-01T07:54:01.408Z,38.75
2017-09-01T07:56:27.837Z,38.55
2017-09-01T07:58:54.221Z,37.95
2017-09-01T08:01:20.604Z,38.49
2017-09-01T08:03:47.063Z,38.28
2017-09-01T08:06:13.616Z,38.25
2017-09-01T08:08:40.164Z,38.35
2017-09-01T08:11:06.900Z,38.99
2017-09-01T08:13:33.445Z,39.04
2017-09-01T08:16:00.211Z,39.96
2017-09-01T08:18:27.055Z,39.52
2017-09-01T08:20:53.711Z,39.95
2017-09-01T08:23:20.348Z,40.18
2017-09-01T08:25:47.033Z,40.67
2017-09-01T08:28:13.824Z,40.97
2017-09-01T08:30:40.259Z,40.55
2017-09-01T08:33:06.859Z,40.91
2017-09-01T08:35:33.236Z,40.61
2017-09-01T08:37:59.612Z,40.36
2017-09-01T08:40:26.046Z,41.09
2017-09-01T08:42:52.428Z,41.57
2017-09-01T08:45:18.812Z,42.71
2017-09-01T08:47:45.240Z,42.88
2017-09-01T08:50:11.620Z,42.68
2017-09-01T08:52:38.018Z,42.13
2017-09-01T08:55:04.469Z,42.39
2017-09-01T08:57:30.851Z,42.48
2017-09-01T08:59:57.218Z,41.71
2017-09-01T09:02:23.656Z,42.00
2017-09-01T09:04:50.025Z,41.08
2017-09-01T09:07:16.372Z,40.53
2017-09-01T09:09:42.781Z,39.22
2017-09-01T09:12:09.141Z,39.04
2017-09-01T09:14:35.495Z,39.68
2017-09-01T09:17:01.936Z,40.79
2017-09-01T09:19:28.305Z,39.44
2017-09-01T09:21:54.692Z,39.64
2017-09-01T09:24:21.135Z,39.34
2017-09-01T09:26:47.512Z,39.77
2017-09-01T09:29:13.909Z,40.08
2017-09-01T09:31:40.337Z,40.64
2017-09-01T09:34:06.747Z,41.08
2017-09-01T09:36:33.141Z,41.10
2017-09-01T09:38:59.594Z,41.24
2017-09-01T09:41:25.968Z,42.16
2017-09-01T09:43:52.337Z,43.26
2017-09-01T09:46:18.760Z,42.58
2017-09-01T09:48:45.135Z,41.88
2017-09-01T09:51:11.500Z,42.88
2017-09-01T09:53:37.916Z,43.66
2017-09-01T09:56:04.284Z,42.87
2017-09-01T09:58:30.658Z,43.71
2017-09-01T10:00:57.097Z,42.56
2017-09-01T10:03:23.464Z,43.21
2017-09-01T10:05:49.833Z,41.97
2017-09-01T10:08:16.264Z,39.54
2017-09-01T10:10:42.639Z,39.72
2017-09-01T10:13:09.027Z,40.44
2017-09-01T10:15:35.459Z,41.28
2017-09-01T10:18:01.848Z,41.88
2017-09-01T10:20:28.244Z,41.42
2017-09-01T10:22:54.759Z,42.63
2017-09-01T10:25:21.104Z,42.72
2017-09-01T10:27:47.472Z,41.57
2017-09-01T10:30:13.894Z,41.68
2017-09-01T10:32:40.251Z,41.70
2017-09-01T10:35:06.630Z,42.88
2017-09-01T10:37:33.078Z,42.41
2017-09-01T10:39:59.456Z,42.53
2017-09-01T10:42:25.839Z,42.71
2017-09-01T10:44:52.276Z,41.61
2017-09-01T10:47:18.646Z,41.71
2017-09-01T10:49:45.012Z,41.14
2017-09-01T10:52:11.460Z,41.13
2017-09-01T10:54:37.844Z,41.62
2017-09-01T10:57:04.221Z,42.15
2017-09-01T10:59:30.649Z,42.59
2017-09-01T11:01:57.031Z,42.54
2017-09-01T11:04:23.393Z,42.45
2017-09-01T11:06:49.831Z,43.33
2017-09-01T11:09:16.221Z,43.64
2017-09-01T11:11:42.597Z,44.13
2017-09-01T11:14:09.040Z,42.91
2017-09-01T11:16:35.417Z,43.70
2017-09-01T11:19:01.769Z,44.24
2017-09-01T11:21:28.190Z,43.18
2017-09-01T11:23:54.567Z,43.27
2017-09-01T11:26:20.934Z,43.53
2017-09-01T11:28:47.345Z,41.78
2017-09-01T11:31:13.709Z,42.32
2017-09-01T11:33:40.058Z,42.16
2017-09-01T11:36:06.469Z,42.69
2017-09-01T11:38:32.829Z,41.91
2017-09-01T11:40:59.201Z,41.97
2017-09-01T11:43:25.629Z,41.76
2017-09-01T11:45:51.991Z,41.76
2017-09-01T11:48:18.344Z,42.08
2017-09-01T11:50:44.818Z,43.19
2017-09-01T11:53:11.359Z,43.74
2017-09-01T11:55:37.725Z,42.92
2017-09-01T11:58:04.834Z,42.84
2017-09-01T12:00:31.227Z,43.47
2017-09-01T12:02:57.616Z,44.15
2017-09-01T12:05:24.058Z,44.28
2017-09-01T12:07:50.422Z,44.43
2017-09-01T12:10:16.786Z,42.42
2017-09-01T12:12:43.225Z,43.07
2017-09-01T12:15:09.584Z,41.18
2017-09-01T12:17:35.963Z,41.67
2017-09-01T12:20:02.390Z,42.09
2017-09-01T12:22:28.766Z,42.90
2017-09-01T12:24:55.155Z,43.90
2017-09-01T12:27:21.602Z,43.04
2017-09-01T12:29:47.967Z,43.03
2017-09-01T12:32:14.337Z,42.62
2017-09-01T12:34:40.785Z,42.95
2017-09-01T12:37:07.149Z,42.19
2017-09-01T12:39:33.538Z,41.46
2017-09-01T12:41:59.989Z,40.90
2017-09-01T12:44:26.664Z,41.91
2017-09-01T12:46:53.281Z,42.63
2017-09-01T12:49:19.906Z,42.85
2017-09-01T12:51:46.446Z,43.17
2017-09-01T12:54:13.009Z,42.73
2017-09-01T12:56:39.854Z,42.50
2017-09-01T12:59:06.277Z,42.31
2017-09-01T13:01:32.783Z,42.33
2017-09-01T13:03:59.405Z,41.96
2017-09-01T13:06:26.167Z,40.89
2017-09-01T13:08:52.843Z,41.20
2017-09-01T13:11:19.656Z,41.41
2017-09-01T13:13:46.117Z,41.44
2017-09-01T13:16:12.690Z,39.86
2017-09-01T13:18:39.331Z,38.99
2017-09-01T13:21:05.879Z,38.38
2017-09-01T13:23:32.645Z,37.20
2017-09-01T13:25:59.262Z,36.81
2017-09-01T13:28:25.808Z,36.47
2017-09-01T13:30:52.571Z,36.07
2017-09-01T13:33:19.191Z,35.46
2017-09-01T13:35:45.655Z,35.03
2017-09-01T13:38:12.013Z,35.08
2017-09-01T13:40:38.487Z,34.79
2017-09-01T13:43:05.012Z,34.61
2017-09-01T13:45:31.799Z,34.43
2017-09-01T13:47:58.636Z,34.43
2017-09-01T13:50:25.236Z,34.47
2017-09-01T13:52:51.917Z,34.39
2017-09-01T13:55:18.401Z,34.18
2017-09-01T13:57:45.192Z,33.97
2017-09-01T14:00:11.625Z,33.93
2017-09-01T14:02:38.128Z,33.89
2017-09-01T14:05:05.108Z,33.79
2017-09-01T14:07:31.608Z,33.67
2017-09-01T14:09:58.182Z,33.53
2017-09-01T14:12:24.766Z,33.44
2017-09-01T14:14:51.455Z,33.38
2017-09-01T14:17:18.176Z,33.25
2017-09-01T14:19:44.572Z,33.29
2017-09-01T14:22:11.167Z,33.32
2017-09-01T14:24:37.978Z,33.33
2017-09-01T14:27:04.498Z,33.29
2017-09-01T14:29:31.076Z,33.28
2017-09-01T14:31:57.909Z,33.27
2017-09-01T14:34:24.354Z,33.24
2017-09-01T14:36:50.967Z,33.16
2017-09-01T14:39:17.587Z,33.08
2017-09-01T14:41:44.058Z,32.99
2017-09-01T14:44:10.544Z,32.92
2017-09-01T14:46:37.190Z,32.83
2017-09-01T14:49:03.631Z,32.74
2017-09-01T14:51:30.413Z,32.65
2017-09-01T14:53:57.049Z,32.46
2017-09-01T14:56:23.533Z,32.39
2017-09-01T14:58:49.976Z,32.43
2017-09-01T15:01:16.348Z,32.45
2017-09-01T15:03:42.982Z,32.44
2017-09-01T15:06:09.268Z,32.43
2017-09-01T15:08:35.790Z,32.47
2017-09-01T15:11:02.237Z,32.47
2017-09-01T15:13:28.928Z,32.40
2017-09-01T15:15:55.265Z,32.26
2017-09-01T15:18:21.617Z,32.05
2017-09-01T15:20:47.914Z,31.98
2017-09-01T15:23:14.442Z,31.93
2017-09-01T15:25:40.888Z,31.92
2017-09-01T15:28:07.317Z,31.83
2017-09-01T15:30:33.901Z,31.74
2017-09-01T15:33:00.442Z,31.64
2017-09-01T15:35:27.032Z,31.64
2017-09-01T15:37:53.428Z,31.53
2017-09-01T15:40:20.095Z,31.38
2017-09-01T15:42:46.739Z,31.33
2017-09-01T15:45:13.377Z,31.25
2017-09-01T15:47:39.651Z,31.16
2017-09-01T15:50:06.190Z,31.03
2017-09-01T15:52:32.732Z,30.90
2017-09-01T15:54:59.178Z,30.82
2017-09-01T15:57:25.694Z,30.66
2017-09-01T15:59:52.237Z,30.58
2017-09-01T16:02:18.677Z,30.41
2017-09-01T16:04:45.091Z,30.21
2017-09-01T16:07:11.437Z,30.01
2017-09-01T16:09:37.879Z,29.78
2017-09-01T16:12:04.547Z,29.56
2017-09-01T16:14:30.979Z,29.27
2017-09-01T16:16:57.602Z,29.04
2017-09-01T16:19:24.264Z,28.78
2017-09-01T16:21:50.662Z,28.63
2017-09-01T16:24:17.331Z,28.43
2017-09-01T16:26:43.631Z,28.22
2017-09-01T16:29:10.201Z,27.94
2017-09-01T16:31:36.811Z,27.69
2017-09-01T16:34:03.470Z,27.55
2017-09-01T16:36:30.090Z,27.49
2017-09-01T16:38:56.546Z,27.18
2017-09-01T16:41:23.029Z,27.02
2017-09-01T16:43:49.468Z,26.78
2017-09-01T16:46:15.757Z,26.62
2017-09-01T16:48:42.482Z,26.49
2017-09-01T16:51:08.781Z,26.36
2017-09-01T16:53:35.346Z,26.15
2017-09-01T16:56:02.242Z,25.94
2017-09-01T16:58:28.829Z,25.69
2017-09-01T17:00:55.268Z,25.51
2017-09-01T17:03:21.907Z,25.34
2017-09-01T17:05:48.527Z,25.11
2017-09-01T17:08:14.955Z,24.87
2017-09-01T17:10:41.615Z,24.69
2017-09-01T17:13:08.224Z,24.52
2017-09-01T17:15:34.894Z,24.33
2017-09-01T17:18:01.322Z,24.09
2017-09-01T17:20:27.750Z,24.00
2017-09-01T17:22:54.056Z,23.90
2017-09-01T17:25:20.658Z,23.78
2017-09-01T17:27:47.067Z,23.66
2017-09-01T17:30:13.478Z,23.52
2017-09-01T17:32:39.919Z,23.41
2017-09-01T17:35:06.534Z,23.29
2017-09-01T17:37:32.975Z,23.17
2017-09-01T17:39:59.495Z,23.06
2017-09-01T17:42:26.011Z,22.93
2017-09-01T17:44:52.317Z,22.83
2017-09-01T17:47:18.928Z,22.74
2017-09-01T17:49:45.538Z,22.69
2017-09-01T17:52:12.209Z,22.62
2017-09-01T17:54:38.842Z,22.42
2017-09-01T17:57:05.277Z,22.34
2017-09-01T17:59:31.905Z,22.35
2017-09-01T18:01:58.346Z,22.22
2017-09-01T18:04:24.643Z,22.01
2017-09-01T18:06:51.007Z,21.96
2017-09-01T18:09:17.421Z,21.96
2017-09-01T18:11:44.065Z,22.01
2017-09-01T18:14:10.509Z,21.97
2017-09-01T18:16:36.859Z,21.83
2017-09-01T18:19:03.342Z,21.75
2017-09-01T18:21:30.016Z,21.59
2017-09-01T18:23:56.598Z,21.47
2017-09-01T18:26:23.268Z,21.38
2017-09-01T18:28:49.937Z,21.38
2017-09-01T18:31:16.577Z,21.42
2017-09-01T18:33:43.196Z,21.56
2017-09-01T18:36:09.848Z,21.63
2017-09-01T18:38:36.269Z,21.70
2017-09-01T18:41:02.894Z,21.68
2017-09-01T18:43:29.540Z,21.63
2017-09-01T18:45:55.891Z,21.66
2017-09-01T18:48:22.227Z,21.60
2017-09-01T18:50:48.839Z,21.58
2017-09-01T18:53:15.291Z,21.57
2017-09-01T18:55:41.773Z,21.44
2017-09-01T18:58:08.219Z,21.24
2017-09-01T19:00:34.556Z,21.05
2017-09-01T19:03:00.925Z,20.79
2017-09-01T19:05:27.466Z,20.55
2017-09-01T19:07:53.793Z,20.48
2017-09-01T19:10:20.209Z,20.41
2017-09-01T19:12:46.846Z,20.40
2017-09-01T19:15:13.439Z,20.27
2017-09-01T19:17:40.135Z,20.23
2017-09-01T19:20:06.768Z,20.13
2017-09-01T19:22:33.211Z,20.08
2017-09-01T19:24:59.747Z,19.94
2017-09-01T19:27:26.227Z,19.94
2017-09-01T19:29:53.019Z,19.98
2017-09-01T19:32:19.632Z,19.85
2017-09-01T19:34:46.276Z,19.63
2017-09-01T19:37:12.693Z,19.51
2017-09-01T19:39:39.108Z,19.44
2017-09-01T19:42:05.590Z,19.34
2017-09-01T19:44:32.026Z,19.24
2017-09-01T19:46:58.453Z,19.22
2017-09-01T19:49:24.899Z,19.16
2017-09-01T19:51:51.332Z,19.17
2017-09-01T19:54:17.763Z,19.01
2017-09-01T19:56:44.187Z,18.91
2017-09-01T19:59:10.834Z,18.82
2017-09-01T20:01:37.459Z,18.81
2017-09-01T20:04:03.746Z,18.63
2017-09-01T20:06:30.125Z,18.69
2017-09-01T20:08:56.564Z,18.57
2017-09-01T20:11:22.993Z,18.51
2017-09-01T20:13:49.436Z,18.40
2017-09-01T20:16:15.768Z,18.36
2017-09-01T20:18:42.060Z,18.27
2017-09-01T20:21:08.737Z,18.25
2017-09-01T20:23:35.218Z,18.13
2017-09-01T20:26:01.587Z,18.17
2017-09-01T20:28:28.037Z,18.10
2017-09-01T20:30:54.519Z,18.11
2017-09-01T20:33:20.881Z,18.20
2017-09-01T20:35:47.539Z,18.19
2017-09-01T20:38:13.969Z,18.07
2017-09-01T20:40:40.606Z,18.02
2017-09-01T20:43:07.043Z,17.89
2017-09-01T20:45:33.348Z,17.77
2017-09-01T20:47:59.885Z,17.63
2017-09-01T20:50:26.340Z,17.67
2017-09-01T20:52:52.983Z,17.65
2017-09-01T20:55:19.406Z,17.58
2017-09-01T20:57:45.842Z,17.52
2017-09-01T21:00:12.281Z,17.56
2017-09-01T21:02:38.767Z,17.52
2017-09-01T21:05:05.557Z,17.54
2017-09-01T21:07:32.207Z,17.46
2017-09-01T21:09:58.521Z,17.37
2017-09-01T21:12:25.109Z,17.32
2017-09-01T21:14:51.553Z,17.30
2017-09-01T21:17:18.068Z,17.34
2017-09-01T21:19:44.413Z,17.29
2017-09-01T21:22:10.851Z,17.22
2017-09-01T21:24:37.141Z,17.25
2017-09-01T21:27:03.646Z,17.16
2017-09-01T21:29:30.090Z,17.09
2017-09-01T21:31:56.381Z,17.14
2017-09-01T21:34:22.757Z,17.33
2017-09-01T21:36:49.379Z,17.21
2017-09-01T21:39:15.872Z,17.02
2017-09-01T21:41:42.407Z,17.16
2017-09-01T21:44:09.079Z,17.01
2017-09-01T21:46:35.433Z,16.86
2017-09-01T21:49:01.817Z,16.69
2017-09-01T21:51:28.505Z,16.72
2017-09-01T21:53:55.139Z,16.81
2017-09-01T21:56:21.775Z,16.73
2017-09-01T21:58:48.407Z,16.66
2017-09-01T22:01:14.853Z,16.61
2017-09-01T22:03:41.441Z,16.55
2017-09-01T22:06:07.767Z,16.59
2017-09-01T22:08:34.348Z,16.58
2017-09-01T22:11:00.938Z,16.51
2017-09-01T22:13:27.635Z,16.60
2017-09-01T22:15:54.127Z,16.53
2017-09-01T22:18:20.911Z,16.42
2017-09-01T22:20:47.533Z,16.37
2017-09-01T22:23:14.053Z,16.51
2017-09-01T22:25:40.825Z,16.44
2017-09-01T22:28:07.436Z,16.35
2017-09-01T22:30:34.101Z,16.26
2017-09-01T22:33:00.532Z,16.36
2017-09-01T22:35:27.171Z,16.31
2017-09-01T22:37:53.778Z,16.27
2017-09-01T22:40:20.396Z,16.18
2017-09-01T22:42:47.085Z,16.11
2017-09-01T22:45:13.526Z,16.07
2017-09-01T22:47:39.982Z,15.94
2017-09-01T22:50:06.564Z,15.83
2017-09-01T22:52:33.226Z,15.97
2017-09-01T22:54:59.824Z,15.93
2017-09-01T22:57:26.501Z,15.96
2017-09-01T22:59:53.140Z,15.87
2017-09-01T23:02:19.780Z,15.82
2017-09-01T23:04:46.389Z,15.77
2017-09-01T23:07:13.053Z,15.80
2017-09-01T23:09:39.447Z,15.95
2017-09-01T23:12:06.116Z,15.83
2017-09-01T23:14:32.610Z,15.84
2017-09-01T23:16:58.991Z,15.67
2017-09-01T23:19:25.633Z,15.66
2017-09-01T23:21:52.258Z,15.52
2017-09-01T23:24:18.753Z,15.43
2017-09-01T23:26:45.194Z,15.40
2017-09-01T23:29:11.488Z,15.35
2017-09-01T23:31:37.992Z,15.29
2017-09-01T23:34:04.639Z,15.20
2017-09-01T23:36:31.073Z,15.19
2017-09-01T23:38:57.677Z,15.15
2017-09-01T23:41:24.351Z,15.08
2017-09-01T23:43:50.777Z,15.08
2017-09-01T23:46:17.085Z,15.03
2017-09-01T23:48:43.590Z,14.94
2017-09-01T23:51:10.285Z,14.99
2017-09-01T23:53:36.874Z,14.97
2017-09-01T23:56:03.542Z,14.90
2017-09-01T23:58:30.184Z,14.91
